createdAt,value
2017-02-18T00:00:55.751Z,734.07
2017-02-18T00:01:55.721Z,734.05
2017-02-18T00:02:55.699Z,734.1
2017-02-18T00:03:55.682Z,734.09
2017-02-18T00:04:55.653Z,734.07
2017-02-18T00:05:55.634Z,734.06
2017-02-18T00:06:55.613Z,734.03
2017-02-18T00:07:55.583Z,734.06
2017-02-18T00:08:55.560Z,734.1
2017-02-18T00:09:55.536Z,734.05
2017-02-18T00:10:55.519Z,734.04
2017-02-18T00:11:55.497Z,734.02
2017-02-18T00:12:55.473Z,734.02
2017-02-18T00:13:55.450Z,734.04
2017-02-18T00:14:55.421Z,734
2017-02-18T00:15:55.403Z,733.94
2017-02-18T00:16:55.382Z,733.95
2017-02-18T00:17:55.359Z,733.95
2017-02-18T00:18:55.330Z,733.93
2017-02-18T00:19:55.314Z,733.84
2017-02-18T00:20:55.285Z,733.88
2017-02-18T00:21:55.262Z,733.92
2017-02-18T00:22:55.240Z,733.91
2017-02-18T00:23:55.216Z,733.97
2017-02-18T00:24:55.192Z,734
2017-02-18T00:25:55.178Z,733.97
2017-02-18T00:26:55.147Z,734.02
2017-02-18T00:27:55.131Z,734.01
2017-02-18T00:28:55.103Z,734.01
2017-02-18T00:29:55.086Z,733.93
2017-02-18T00:30:55.056Z,733.91
2017-02-18T00:31:55.034Z,733.93
2017-02-18T00:32:55.016Z,733.94
2017-02-18T00:33:54.995Z,734
2017-02-18T00:34:54.971Z,733.97
2017-02-18T00:35:54.949Z,733.95
2017-02-18T00:36:54.927Z,733.96
2017-02-18T00:37:54.904Z,733.93
2017-02-18T00:38:54.879Z,733.91
2017-02-18T00:39:54.857Z,733.88
2017-02-18T00:40:54.835Z,733.88
2017-02-18T00:41:54.811Z,733.89
2017-02-18T00:42:54.788Z,733.91
2017-02-18T00:43:54.765Z,733.88
2017-02-18T00:44:54.743Z,733.86
2017-02-18T00:45:54.720Z,733.86
2017-02-18T00:46:54.690Z,733.87
2017-02-18T00:47:54.674Z,733.87
2017-02-18T00:48:54.645Z,733.84
2017-02-18T00:49:54.628Z,733.83
2017-02-18T00:50:54.605Z,733.85
2017-02-18T00:51:54.582Z,733.78
2017-02-18T00:52:54.560Z,733.83
2017-02-18T00:53:54.530Z,733.84
2017-02-18T00:54:54.506Z,733.86
2017-02-18T00:55:54.485Z,733.89
2017-02-18T00:56:54.461Z,733.85
2017-02-18T00:57:54.440Z,733.9
2017-02-18T00:58:54.417Z,733.89
2017-02-18T00:59:54.400Z,733.89
2017-02-18T01:00:54.371Z,733.91
2017-02-18T01:01:54.356Z,733.88
2017-02-18T01:02:54.326Z,733.88
2017-02-18T01:03:54.310Z,733.87
2017-02-18T01:04:54.287Z,733.91
2017-02-18T01:05:54.260Z,733.9
2017-02-18T01:06:54.243Z,733.95
2017-02-18T01:07:54.221Z,733.91
2017-02-18T01:08:54.199Z,733.98
2017-02-18T01:09:54.170Z,733.99
2017-02-18T01:10:54.147Z,733.97
2017-02-18T01:11:54.124Z,733.95
2017-02-18T01:12:54.107Z,733.97
2017-02-18T01:13:54.086Z,733.95
2017-02-18T01:14:54.055Z,733.95
2017-02-18T01:15:54.039Z,733.91
2017-02-18T01:16:54.017Z,733.92
2017-02-18T01:17:53.994Z,733.9
2017-02-18T01:18:53.965Z,733.93
2017-02-18T01:19:53.941Z,733.97
2017-02-18T01:20:53.919Z,733.98
2017-02-18T01:21:53.902Z,733.94
2017-02-18T01:22:53.873Z,733.93
2017-02-18T01:23:53.856Z,733.91
2017-02-18T01:24:53.834Z,733.91
2017-02-18T01:25:53.805Z,733.9
2017-02-18T01:26:53.782Z,733.96
2017-02-18T01:27:53.760Z,733.87
2017-02-18T01:28:53.743Z,733.82
2017-02-18T01:29:53.714Z,733.85
2017-02-18T01:30:53.691Z,733.83
2017-02-18T01:31:53.675Z,733.83
2017-02-18T01:32:53.646Z,733.83
2017-02-18T01:33:53.623Z,733.85
2017-02-18T01:34:53.601Z,733.79
2017-02-18T01:35:53.578Z,733.82
2017-02-18T01:36:53.555Z,733.76
2017-02-18T01:37:53.538Z,733.81
2017-02-18T01:38:53.516Z,733.81
2017-02-18T01:39:53.487Z,733.83
2017-02-18T01:40:53.464Z,733.82
2017-02-18T01:41:53.446Z,733.79
2017-02-18T01:42:53.425Z,733.77
2017-02-18T01:43:53.395Z,733.83
2017-02-18T01:44:53.378Z,733.84
2017-02-18T01:45:53.350Z,733.82
2017-02-18T01:46:53.331Z,733.84
2017-02-18T01:47:53.309Z,733.85
2017-02-18T01:48:53.286Z,733.82
2017-02-18T01:49:53.257Z,733.82
2017-02-18T01:50:53.235Z,733.84
2017-02-18T01:51:53.212Z,733.81
2017-02-18T01:52:53.195Z,733.82
2017-02-18T01:53:53.167Z,733.79
2017-02-18T01:54:53.151Z,733.77
2017-02-18T01:55:53.123Z,733.75
2017-02-18T01:56:53.099Z,733.71
2017-02-18T01:57:53.078Z,733.75
2017-02-18T01:58:53.059Z,733.74
2017-02-18T01:59:53.037Z,733.64
2017-02-18T02:00:53.010Z,733.62
2017-02-18T02:01:52.987Z,733.62
2017-02-18T02:02:52.966Z,733.63
2017-02-18T02:03:52.947Z,733.69
2017-02-18T02:04:52.925Z,733.61
2017-02-18T02:05:52.903Z,733.64
2017-02-18T02:06:52.881Z,733.64
2017-02-18T02:07:52.852Z,733.64
2017-02-18T02:08:52.828Z,733.64
2017-02-18T02:09:52.813Z,733.67
2017-02-18T02:10:52.790Z,733.68
2017-02-18T02:11:52.761Z,733.62
2017-02-18T02:12:52.745Z,733.65
2017-02-18T02:13:52.724Z,733.67
2017-02-18T02:14:52.700Z,733.65
2017-02-18T02:15:52.678Z,733.66
2017-02-18T02:16:52.649Z,733.65
2017-02-18T02:17:52.632Z,733.61
2017-02-18T02:18:52.610Z,733.62
2017-02-18T02:19:52.588Z,733.58
2017-02-18T02:20:52.566Z,733.59
2017-02-18T02:21:52.537Z,733.58
2017-02-18T02:22:52.515Z,733.53
2017-02-18T02:23:52.493Z,733.52
2017-02-18T02:24:52.477Z,733.54
2017-02-18T02:25:52.448Z,733.54
2017-02-18T02:26:52.425Z,733.56
2017-02-18T02:27:52.402Z,733.62
2017-02-18T02:28:52.386Z,733.51
2017-02-18T02:29:52.359Z,733.53
2017-02-18T02:31:52.516Z,733.56
2017-02-18T02:32:52.300Z,733.46
2017-02-18T02:33:52.277Z,733.44
2017-02-18T02:34:52.255Z,733.52
2017-02-18T02:35:52.226Z,733.44
2017-02-18T02:36:52.210Z,733.44
2017-02-18T02:37:52.183Z,733.43
2017-02-18T02:38:52.167Z,733.42
2017-02-18T02:39:52.144Z,733.44
2017-02-18T02:40:52.121Z,733.39
2017-02-18T02:41:52.100Z,733.37
2017-02-18T02:42:52.080Z,733.4
2017-02-18T02:43:52.055Z,733.39
2017-02-18T02:44:52.026Z,733.38
2017-02-18T02:45:52.003Z,733.43
2017-02-18T02:46:51.987Z,733.38
2017-02-18T02:47:51.956Z,733.41
2017-02-18T02:48:51.934Z,733.41
2017-02-18T02:49:51.910Z,733.39
2017-02-18T02:50:51.894Z,733.45
2017-02-18T02:51:51.871Z,733.44
2017-02-18T02:52:51.843Z,733.41
2017-02-18T02:53:51.819Z,733.39
2017-02-18T02:54:51.796Z,733.44
2017-02-18T02:55:51.774Z,733.45
2017-02-18T02:56:51.758Z,733.43
2017-02-18T02:57:51.728Z,733.46
2017-02-18T02:58:51.916Z,733.43
2017-02-18T02:59:51.683Z,733.44
2017-02-18T03:00:51.667Z,733.47
2017-02-18T03:01:51.643Z,733.49
2017-02-18T03:02:51.615Z,733.44
2017-02-18T03:03:51.594Z,733.49
2017-02-18T03:04:51.575Z,733.49
2017-02-18T03:05:51.548Z,733.51
2017-02-18T03:06:51.526Z,733.44
2017-02-18T03:07:51.510Z,733.48
2017-02-18T03:08:51.480Z,733.52
2017-02-18T03:09:51.458Z,733.48
2017-02-18T03:10:51.437Z,733.53
2017-02-18T03:11:51.413Z,733.48
2017-02-18T03:12:51.392Z,733.54
2017-02-18T03:13:51.367Z,733.53
2017-02-18T03:14:51.352Z,733.52
2017-02-18T03:15:51.328Z,733.53
2017-02-18T03:16:51.302Z,733.5
2017-02-18T03:17:51.280Z,733.5
2017-02-18T03:18:51.256Z,733.55
2017-02-18T03:19:51.240Z,733.5
2017-02-18T03:20:51.211Z,733.51
2017-02-18T03:21:51.196Z,733.51
2017-02-18T03:22:51.166Z,733.47
2017-02-18T03:23:51.144Z,733.51
2017-02-18T03:24:51.124Z,733.52
2017-02-18T03:25:51.107Z,733.52
2017-02-18T03:26:51.077Z,733.48
2017-02-18T03:27:51.054Z,733.47
2017-02-18T03:28:51.033Z,733.47
2017-02-18T03:29:51.016Z,733.47
2017-02-18T03:30:50.988Z,733.46
2017-02-18T03:31:50.973Z,733.42
2017-02-18T03:32:50.949Z,733.45
2017-02-18T03:33:50.925Z,733.42
2017-02-18T03:34:50.902Z,733.43
2017-02-18T03:35:50.873Z,733.41
2017-02-18T03:36:51.053Z,733.41
2017-02-18T03:37:50.833Z,733.43
2017-02-18T03:38:50.804Z,733.43
2017-02-18T03:39:50.790Z,733.41
2017-02-18T03:40:50.766Z,733.47
2017-02-18T03:41:50.744Z,733.47
2017-02-18T03:42:50.714Z,733.41
2017-02-18T03:43:50.697Z,733.38
2017-02-18T03:44:50.672Z,733.39
2017-02-18T03:45:50.643Z,733.44
2017-02-18T03:46:50.628Z,733.39
2017-02-18T03:47:50.608Z,733.4
2017-02-18T03:48:50.581Z,733.37
2017-02-18T03:49:50.559Z,733.35
2017-02-18T03:50:50.535Z,733.38
2017-02-18T03:51:50.504Z,733.3
2017-02-18T03:52:50.489Z,733.4
2017-02-18T03:53:50.459Z,733.34
2017-02-18T03:54:50.443Z,733.36
2017-02-18T03:55:50.413Z,733.31
2017-02-18T03:56:50.390Z,733.36
2017-02-18T03:57:50.367Z,733.36
2017-02-18T03:58:50.350Z,733.36
2017-02-18T03:59:50.321Z,733.31
2017-02-18T04:00:50.305Z,733.36
2017-02-18T04:01:50.281Z,733.41
2017-02-18T04:02:50.258Z,733.36
2017-02-18T04:03:50.237Z,733.38
2017-02-18T04:04:50.214Z,733.36
2017-02-18T04:05:50.191Z,733.39
2017-02-18T04:06:50.167Z,733.39
2017-02-18T04:07:50.143Z,733.42
2017-02-18T04:08:50.116Z,733.37
2017-02-18T04:09:50.093Z,733.37
2017-02-18T04:10:50.069Z,733.34
2017-02-18T04:11:50.047Z,733.3
2017-02-18T04:12:50.031Z,733.32
2017-02-18T04:13:50.001Z,733.32
2017-02-18T04:14:49.978Z,733.34
2017-02-18T04:15:49.957Z,733.35
2017-02-18T04:16:49.938Z,733.38
2017-02-18T04:17:49.908Z,733.35
2017-02-18T04:18:49.893Z,733.35
2017-02-18T04:19:49.871Z,733.33
2017-02-18T04:20:49.847Z,733.39
2017-02-18T04:21:49.818Z,733.37
2017-02-18T04:22:49.803Z,733.39
2017-02-18T04:23:49.780Z,733.4
2017-02-18T04:24:49.750Z,733.4
2017-02-18T04:25:49.734Z,733.42
2017-02-18T04:26:49.705Z,733.42
2017-02-18T04:27:49.688Z,733.44
2017-02-18T04:28:49.664Z,733.4
2017-02-18T04:29:49.641Z,733.45
2017-02-18T04:30:49.612Z,733.46
2017-02-18T04:31:49.589Z,733.45
2017-02-18T04:32:49.572Z,733.46
2017-02-18T04:33:49.546Z,733.49
2017-02-18T04:34:49.526Z,733.42
2017-02-18T04:35:49.500Z,733.51
2017-02-18T04:36:49.474Z,733.47
2017-02-18T04:37:49.456Z,733.49
2017-02-18T04:38:49.427Z,733.5
2017-02-18T04:39:49.404Z,733.49
2017-02-18T04:40:49.387Z,733.5
2017-02-18T04:41:49.358Z,733.49
2017-02-18T04:42:49.342Z,733.43
2017-02-18T04:43:49.310Z,733.44
2017-02-18T04:44:49.293Z,733.48
2017-02-18T04:45:49.271Z,733.45
2017-02-18T04:46:49.239Z,733.48
2017-02-18T04:47:49.217Z,733.47
2017-02-18T04:48:49.193Z,733.48
2017-02-18T04:49:49.177Z,733.45
2017-02-18T04:50:49.154Z,733.46
2017-02-18T04:51:49.131Z,733.43
2017-02-18T04:52:49.108Z,733.5
2017-02-18T04:53:49.085Z,733.48
2017-02-18T04:54:49.057Z,733.49
2017-02-18T04:55:49.032Z,733.48
2017-02-18T04:56:49.015Z,733.46
2017-02-18T04:57:48.986Z,733.47
2017-02-18T04:58:48.970Z,733.43
2017-02-18T04:59:48.947Z,733.47
2017-02-18T05:00:48.918Z,733.44
2017-02-18T05:01:48.895Z,733.4
2017-02-18T05:02:48.873Z,733.43
2017-02-18T05:03:48.849Z,733.43
2017-02-18T05:04:48.832Z,733.45
2017-02-18T05:05:48.808Z,733.39
2017-02-18T05:06:48.784Z,733.47
2017-02-18T05:07:48.756Z,733.47
2017-02-18T05:08:48.741Z,733.52
2017-02-18T05:09:48.716Z,733.61
2017-02-18T05:10:48.744Z,733.54
2017-02-18T05:11:48.674Z,733.49
2017-02-18T05:12:48.642Z,733.47
2017-02-18T05:13:48.627Z,733.5
2017-02-18T05:14:48.602Z,733.45
2017-02-18T05:15:48.575Z,733.44
2017-02-18T05:16:48.560Z,733.49
2017-02-18T05:17:48.531Z,733.48
2017-02-18T05:18:48.516Z,733.47
2017-02-18T05:19:48.494Z,733.43
2017-02-18T05:20:48.471Z,733.39
2017-02-18T05:21:48.441Z,733.42
2017-02-18T05:22:48.424Z,733.44
2017-02-18T05:23:48.394Z,733.48
2017-02-18T05:24:48.379Z,733.47
2017-02-18T05:25:48.350Z,733.47
2017-02-18T05:26:48.332Z,733.47
2017-02-18T05:27:48.309Z,733.48
2017-02-18T05:28:48.280Z,733.48
2017-02-18T05:29:48.264Z,733.47
2017-02-18T05:30:48.241Z,733.44
2017-02-18T05:31:48.212Z,733.47
2017-02-18T05:32:48.196Z,733.45
2017-02-18T05:33:48.173Z,733.49
2017-02-18T05:34:48.149Z,733.48
2017-02-18T05:35:48.121Z,733.49
2017-02-18T05:36:48.099Z,733.46
2017-02-18T05:37:48.082Z,733.46
2017-02-18T05:38:48.059Z,733.47
2017-02-18T05:39:48.036Z,733.51
2017-02-18T05:40:48.007Z,733.52
2017-02-18T05:41:47.983Z,733.53
2017-02-18T05:42:47.961Z,733.51
2017-02-18T05:43:47.944Z,733.5
2017-02-18T05:44:47.922Z,733.49
2017-02-18T05:45:47.891Z,733.52
2017-02-18T05:46:47.870Z,733.55
2017-02-18T05:47:47.854Z,733.53
2017-02-18T05:48:47.829Z,733.55
2017-02-18T05:49:47.806Z,733.54
2017-02-18T05:50:47.778Z,733.57
2017-02-18T05:51:47.761Z,733.5
2017-02-18T05:52:47.732Z,733.47
2017-02-18T05:53:47.714Z,733.49
2017-02-18T05:54:47.686Z,733.51
2017-02-18T05:55:47.664Z,733.49
2017-02-18T05:56:47.639Z,733.54
2017-02-18T05:57:47.623Z,733.57
2017-02-18T05:58:47.599Z,733.54
2017-02-18T05:59:47.576Z,733.54
2017-02-18T06:00:47.553Z,733.59
2017-02-18T06:01:47.530Z,733.57
2017-02-18T06:02:47.507Z,733.6
2017-02-18T06:03:47.482Z,733.64
2017-02-18T06:04:47.453Z,733.67
2017-02-18T06:05:47.436Z,733.67
2017-02-18T06:06:47.408Z,733.64
2017-02-18T06:07:47.391Z,733.63
2017-02-18T06:08:47.365Z,733.64
2017-02-18T06:09:47.343Z,733.62
2017-02-18T06:10:47.319Z,733.61
2017-02-18T06:11:47.292Z,733.66
2017-02-18T06:12:47.266Z,733.67
2017-02-18T06:13:47.243Z,733.63
2017-02-18T06:14:47.219Z,733.6
2017-02-18T06:15:47.196Z,733.6
2017-02-18T06:16:47.174Z,733.7
2017-02-18T06:17:47.157Z,733.7
2017-02-18T06:18:47.127Z,733.73
2017-02-18T06:19:47.103Z,733.71
2017-02-18T06:20:47.086Z,733.72
2017-02-18T06:21:47.063Z,733.73
2017-02-18T06:22:47.039Z,733.73
2017-02-18T06:23:47.017Z,733.75
2017-02-18T06:24:46.987Z,733.76
2017-02-18T06:25:46.963Z,733.75
2017-02-18T06:26:46.941Z,733.77
2017-02-18T06:27:46.918Z,733.81
2017-02-18T06:28:46.896Z,733.8
2017-02-18T06:29:46.871Z,733.84
2017-02-18T06:30:46.849Z,733.78
2017-02-18T06:31:46.833Z,733.77
2017-02-18T06:32:46.810Z,733.76
2017-02-18T06:33:46.787Z,733.78
2017-02-18T06:34:46.763Z,733.76
2017-02-18T06:35:46.741Z,733.76
2017-02-18T06:36:46.712Z,733.8
2017-02-18T06:37:46.697Z,733.8
2017-02-18T06:38:46.669Z,733.75
2017-02-18T06:39:46.646Z,733.75
2017-02-18T06:40:46.623Z,733.77
2017-02-18T06:41:46.607Z,733.78
2017-02-18T06:42:46.585Z,733.75
2017-02-18T06:43:46.556Z,733.76
2017-02-18T06:44:46.539Z,733.75
2017-02-18T06:45:46.519Z,733.82
2017-02-18T06:46:46.490Z,733.83
2017-02-18T06:47:46.474Z,733.75
2017-02-18T06:48:46.444Z,733.8
2017-02-18T06:49:46.423Z,733.82
2017-02-18T06:50:46.408Z,733.87
2017-02-18T06:51:46.386Z,733.86
2017-02-18T06:52:46.357Z,733.83
2017-02-18T06:53:46.346Z,733.89
2017-02-18T06:54:46.313Z,733.88
2017-02-18T06:55:46.291Z,733.87
2017-02-18T06:56:46.276Z,733.82
2017-02-18T06:57:46.254Z,733.81
2017-02-18T06:58:46.224Z,733.84
2017-02-18T06:59:46.202Z,733.83
2017-02-18T07:00:46.188Z,733.88
2017-02-18T07:01:46.159Z,733.85
2017-02-18T07:02:46.137Z,733.82
2017-02-18T07:03:46.121Z,733.89
2017-02-18T07:04:46.091Z,733.88
2017-02-18T07:05:46.076Z,733.92
2017-02-18T07:06:46.053Z,733.93
2017-02-18T07:07:46.031Z,733.92
2017-02-18T07:08:46.002Z,733.92
2017-02-18T07:09:45.980Z,733.9
2017-02-18T07:10:45.964Z,733.92
2017-02-18T07:11:45.941Z,733.92
2017-02-18T07:12:45.918Z,733.9
2017-02-18T07:13:45.895Z,733.9
2017-02-18T07:14:45.873Z,733.92
2017-02-18T07:15:45.853Z,733.92
2017-02-18T07:16:45.829Z,733.9
2017-02-18T07:17:45.801Z,733.88
2017-02-18T07:18:45.784Z,733.9
2017-02-18T07:19:45.762Z,733.85
2017-02-18T07:20:45.734Z,733.89
2017-02-18T07:21:45.711Z,733.93
2017-02-18T07:22:45.695Z,733.89
2017-02-18T07:23:45.671Z,733.92
2017-02-18T07:24:45.645Z,733.94
2017-02-18T07:25:45.624Z,733.95
2017-02-18T07:26:45.605Z,734
2017-02-18T07:27:45.577Z,734
2017-02-18T07:28:45.560Z,734.03
2017-02-18T07:29:45.531Z,733.98
2017-02-18T07:30:45.510Z,734.01
2017-02-18T07:31:45.488Z,734.02
2017-02-18T07:32:45.472Z,733.99
2017-02-18T07:33:45.443Z,734.06
2017-02-18T07:34:45.427Z,734.02
2017-02-18T07:35:45.407Z,734.05
2017-02-18T07:36:45.378Z,734.08
2017-02-18T07:37:45.356Z,734.07
2017-02-18T07:38:45.341Z,734.1
2017-02-18T07:39:45.320Z,734.05
2017-02-18T07:40:45.298Z,734.05
2017-02-18T07:41:45.271Z,734.03
2017-02-18T07:42:45.248Z,734.02
2017-02-18T07:43:45.234Z,734.05
2017-02-18T07:44:45.213Z,734.1
2017-02-18T07:45:45.190Z,734.1
2017-02-18T07:46:45.171Z,734.09
2017-02-18T07:47:45.144Z,734.05
2017-02-18T07:48:45.121Z,734.1
2017-02-18T07:49:45.099Z,734.09
2017-02-18T07:50:45.079Z,734.12
2017-02-18T07:51:45.062Z,734.12
2017-02-18T07:52:45.042Z,734.11
2017-02-18T07:53:45.021Z,734.06
2017-02-18T07:54:44.999Z,734.12
2017-02-18T07:55:44.977Z,734.11
2017-02-18T07:56:44.955Z,734.12
2017-02-18T07:57:44.928Z,734.06
2017-02-18T07:58:44.913Z,734.11
2017-02-18T07:59:44.885Z,734.11
2017-02-18T08:00:44.870Z,734.12
2017-02-18T08:01:44.846Z,734.07
2017-02-18T08:02:44.825Z,734.12
2017-02-18T08:03:44.796Z,734.08
2017-02-18T08:04:44.775Z,734.04
2017-02-18T08:05:44.753Z,734.12
2017-02-18T08:06:44.740Z,734.1
2017-02-18T08:07:44.714Z,734.1
2017-02-18T08:08:44.694Z,734.14
2017-02-18T08:09:44.664Z,734.1
2017-02-18T08:10:44.643Z,734.16
2017-02-18T08:11:44.620Z,734.21
2017-02-18T08:12:44.598Z,734.13
2017-02-18T08:13:44.624Z,734.15
2017-02-18T08:14:44.561Z,734.18
2017-02-18T08:15:44.533Z,734.08
2017-02-18T08:16:44.511Z,734.16
2017-02-18T08:17:44.490Z,734.14
2017-02-18T08:18:44.467Z,734.1
2017-02-18T08:19:44.451Z,734.17
2017-02-18T08:20:44.430Z,734.13
2017-02-18T08:21:44.403Z,734.18
2017-02-18T08:22:44.380Z,734.2
2017-02-18T08:23:44.364Z,734.19
2017-02-18T08:24:44.342Z,734.18
2017-02-18T08:25:44.315Z,734.16
2017-02-18T08:26:44.296Z,734.22
2017-02-18T08:27:44.279Z,734.21
2017-02-18T08:28:44.258Z,734.17
2017-02-18T08:29:44.230Z,734.13
2017-02-18T08:30:44.209Z,734.21
2017-02-18T08:31:44.188Z,734.21
2017-02-18T08:32:44.167Z,734.22
2017-02-18T08:33:44.145Z,734.2
2017-02-18T08:34:44.130Z,734.23
2017-02-18T08:35:44.104Z,734.27
2017-02-18T08:36:44.090Z,734.33
2017-02-18T08:37:44.063Z,734.35
2017-02-18T08:38:44.049Z,734.38
2017-02-18T08:39:44.030Z,734.33
2017-02-18T08:40:44.003Z,734.34
2017-02-18T08:41:43.985Z,734.36
2017-02-18T08:42:43.965Z,734.36
2017-02-18T08:43:43.954Z,734.32
2017-02-18T08:44:43.935Z,734.36
2017-02-18T08:45:43.916Z,734.33
2017-02-18T08:46:43.899Z,734.33
2017-02-18T08:47:43.874Z,734.36
2017-02-18T08:48:43.856Z,734.4
2017-02-18T08:49:43.845Z,734.35
2017-02-18T08:50:43.820Z,734.4
2017-02-18T08:51:43.808Z,734.35
2017-02-18T08:52:43.784Z,734.37
2017-02-18T08:53:43.773Z,734.33
2017-02-18T08:54:43.749Z,734.38
2017-02-18T08:55:43.729Z,734.43
2017-02-18T08:56:43.718Z,734.34
2017-02-18T08:57:43.694Z,734.32
2017-02-18T08:58:43.683Z,734.33
2017-02-18T08:59:43.660Z,734.42
2017-02-18T09:00:43.642Z,734.24
2017-02-18T09:01:43.626Z,734.31
2017-02-18T09:02:43.607Z,734.24
2017-02-18T09:03:43.589Z,734.3
2017-02-18T09:04:43.575Z,734.28
2017-02-18T09:05:43.562Z,734.29
2017-02-18T09:06:43.539Z,734.28
2017-02-18T09:07:43.521Z,734.35
2017-02-18T09:08:43.511Z,734.42
2017-02-18T09:09:43.487Z,734.44
2017-02-18T09:10:43.476Z,734.42
2017-02-18T09:11:43.460Z,734.37
2017-02-18T09:12:43.443Z,734.43
2017-02-18T09:13:43.426Z,734.43
2017-02-18T09:14:43.403Z,734.38
2017-02-18T09:15:43.393Z,734.43
2017-02-18T09:16:43.369Z,734.44
2017-02-18T09:17:43.360Z,734.46
2017-02-18T09:18:43.343Z,734.41
2017-02-18T09:19:43.321Z,734.45
2017-02-18T09:20:43.310Z,734.42
2017-02-18T09:21:43.294Z,734.43
2017-02-18T09:22:43.271Z,734.4
2017-02-18T09:23:43.260Z,734.39
2017-02-18T09:24:43.244Z,734.44
2017-02-18T09:25:43.223Z,734.45
2017-02-18T09:26:43.212Z,734.44
2017-02-18T09:27:43.195Z,734.4
2017-02-18T09:28:43.173Z,734.46
2017-02-18T09:29:43.153Z,734.5
2017-02-18T09:30:43.139Z,734.47
2017-02-18T09:31:43.128Z,734.45
2017-02-18T09:32:43.104Z,734.47
2017-02-18T09:33:43.089Z,734.49
2017-02-18T09:34:43.079Z,734.53
2017-02-18T09:35:43.059Z,734.51
2017-02-18T09:36:43.045Z,734.52
2017-02-18T09:37:43.034Z,734.52
2017-02-18T09:38:43.011Z,734.46
2017-02-18T09:39:42.987Z,734.51
2017-02-18T09:40:42.976Z,734.59
2017-02-18T09:41:42.961Z,734.57
2017-02-18T09:42:42.939Z,734.56
2017-02-18T09:43:42.922Z,734.49
2017-02-18T09:44:42.913Z,734.46
2017-02-18T09:45:42.896Z,734.38
2017-02-18T09:46:42.881Z,734.38
2017-02-18T09:47:42.857Z,734.49
2017-02-18T09:48:42.848Z,734.46
2017-02-18T09:49:42.827Z,734.36
2017-02-18T09:50:42.817Z,734.4
2017-02-18T09:51:42.795Z,734.39
2017-02-18T09:52:42.785Z,734.46
2017-02-18T09:53:42.763Z,734.44
2017-02-18T09:54:42.748Z,734.45
2017-02-18T09:55:42.738Z,734.47
2017-02-18T09:56:42.718Z,734.5
2017-02-18T09:57:42.701Z,734.51
2017-02-18T09:58:42.686Z,734.47
2017-02-18T09:59:42.671Z,734.43
2017-02-18T10:00:42.658Z,734.49
2017-02-18T10:01:42.647Z,734.53
2017-02-18T10:02:42.632Z,734.54
2017-02-18T10:03:42.617Z,734.53
2017-02-18T10:04:42.594Z,734.53
2017-02-18T10:05:42.578Z,734.51
2017-02-18T10:06:42.569Z,734.53
2017-02-18T10:07:42.546Z,734.58
2017-02-18T10:08:42.577Z,734.62
2017-02-18T10:09:42.518Z,734.63
2017-02-18T10:10:42.502Z,734.54
2017-02-18T10:11:42.481Z,734.52
2017-02-18T10:12:42.463Z,734.56
2017-02-18T10:13:42.447Z,734.55
2017-02-18T10:14:42.436Z,734.51
2017-02-18T10:15:42.420Z,734.55
2017-02-18T10:16:42.405Z,734.56
2017-02-18T10:17:42.389Z,734.54
2017-02-18T10:18:42.373Z,734.62
2017-02-18T10:19:42.356Z,734.59
2017-02-18T10:20:42.343Z,734.64
2017-02-18T10:21:42.326Z,734.72
2017-02-18T10:22:42.303Z,734.7
2017-02-18T10:23:42.290Z,734.67
2017-02-18T10:24:42.274Z,734.67
2017-02-18T10:25:42.258Z,734.64
2017-02-18T10:26:42.248Z,734.62
2017-02-18T10:27:42.233Z,734.68
2017-02-18T10:28:42.213Z,734.71
2017-02-18T10:29:42.203Z,734.77
2017-02-18T10:30:42.182Z,734.67
2017-02-18T10:31:42.165Z,734.69
2017-02-18T10:32:42.151Z,734.66
2017-02-18T10:33:42.141Z,734.68
2017-02-18T10:34:42.125Z,734.66
2017-02-18T10:35:42.110Z,734.69
2017-02-18T10:36:42.089Z,734.68
2017-02-18T10:37:42.079Z,734.68
2017-02-18T10:38:42.062Z,734.64
2017-02-18T10:39:42.042Z,734.68
2017-02-18T10:40:42.025Z,734.62
2017-02-18T10:41:42.016Z,734.58
2017-02-18T10:42:42.000Z,734.54
2017-02-18T10:43:41.978Z,734.57
2017-02-18T10:44:41.961Z,734.55
2017-02-18T10:45:41.947Z,734.6
2017-02-18T10:46:41.937Z,734.59
2017-02-18T10:47:41.924Z,734.56
2017-02-18T10:48:41.911Z,734.54
2017-02-18T10:49:41.885Z,734.54
2017-02-18T10:50:41.871Z,734.54
2017-02-18T10:51:41.855Z,734.55
2017-02-18T10:52:41.839Z,734.58
2017-02-18T10:53:41.830Z,734.54
2017-02-18T10:54:41.810Z,734.56
2017-02-18T10:55:41.796Z,734.56
2017-02-18T10:56:41.785Z,734.56
2017-02-18T10:57:41.771Z,734.52
2017-02-18T10:58:41.757Z,734.53
2017-02-18T10:59:41.742Z,734.53
2017-02-18T11:00:41.721Z,734.49
2017-02-18T11:01:41.707Z,734.49
2017-02-18T11:02:41.692Z,734.48
2017-02-18T11:03:41.684Z,734.51
2017-02-18T11:04:41.664Z,734.49
2017-02-18T11:05:41.650Z,734.45
2017-02-18T11:06:41.635Z,734.47
2017-02-18T11:07:41.629Z,734.44
2017-02-18T11:08:41.614Z,734.46
2017-02-18T11:09:41.594Z,734.41
2017-02-18T11:10:41.579Z,734.38
2017-02-18T11:11:41.573Z,734.37
2017-02-18T11:12:41.551Z,734.4
2017-02-18T11:13:41.544Z,734.39
2017-02-18T11:14:41.530Z,734.41
2017-02-18T11:15:41.516Z,734.38
2017-02-18T11:16:41.551Z,734.39
2017-02-18T11:17:41.487Z,734.39
2017-02-18T11:18:41.467Z,734.43
2017-02-18T11:19:41.461Z,734.4
2017-02-18T11:20:41.438Z,734.4
2017-02-18T11:21:41.424Z,734.44
2017-02-18T11:22:41.417Z,734.41
2017-02-18T11:23:41.403Z,734.4
2017-02-18T11:24:41.382Z,734.41
2017-02-18T11:25:41.368Z,734.39
2017-02-18T11:26:41.362Z,734.39
2017-02-18T11:27:41.340Z,734.44
2017-02-18T11:28:41.331Z,734.45
2017-02-18T11:29:41.318Z,734.46
2017-02-18T11:30:41.305Z,734.47
2017-02-18T11:31:41.291Z,734.44
2017-02-18T11:32:41.271Z,734.44
2017-02-18T11:33:41.258Z,734.46
2017-02-18T11:34:41.245Z,734.42
2017-02-18T11:35:41.239Z,734.43
2017-02-18T11:36:41.219Z,734.44
2017-02-18T11:37:41.206Z,734.47
2017-02-18T11:38:41.193Z,734.5
2017-02-18T11:39:41.178Z,734.52
2017-02-18T11:40:41.171Z,734.45
2017-02-18T11:41:41.152Z,734.43
2017-02-18T11:42:41.138Z,734.44
2017-02-18T11:43:41.128Z,734.47
2017-02-18T11:44:41.112Z,734.45
2017-02-18T11:45:41.099Z,734.42
2017-02-18T11:46:41.090Z,734.46
2017-02-18T11:47:41.072Z,734.43
2017-02-18T11:48:41.058Z,734.41
2017-02-18T11:49:41.044Z,734.47
2017-02-18T11:50:41.039Z,734.46
2017-02-18T11:51:41.025Z,734.47
2017-02-18T11:52:41.012Z,734.46
2017-02-18T11:53:40.999Z,734.47
2017-02-18T11:54:40.979Z,734.45
2017-02-18T11:55:40.965Z,734.42
2017-02-18T11:56:40.953Z,734.47
2017-02-18T11:57:46.468Z,734.43
2017-02-18T11:58:40.932Z,734.42
2017-02-18T11:59:40.914Z,734.44
2017-02-18T12:00:40.906Z,734.44
2017-02-18T12:01:40.886Z,734.41
2017-02-18T12:02:40.875Z,734.41
2017-02-18T12:03:40.866Z,734.36
2017-02-18T12:04:40.853Z,734.39
2017-02-18T12:05:40.840Z,734.4
2017-02-18T12:06:40.822Z,734.4
2017-02-18T12:07:40.807Z,734.39
2017-02-18T12:08:40.792Z,734.45
2017-02-18T12:09:40.780Z,734.34
2017-02-18T12:10:40.766Z,734.34
2017-02-18T12:11:40.761Z,734.34
2017-02-18T12:12:40.739Z,734.33
2017-02-18T12:13:40.726Z,734.34
2017-02-18T12:14:40.713Z,734.36
2017-02-18T12:15:40.700Z,734.37
2017-02-18T12:16:40.695Z,734.41
2017-02-18T12:17:40.678Z,734.42
2017-02-18T12:18:40.661Z,734.4
2017-02-18T12:19:40.645Z,734.36
2017-02-18T12:20:40.639Z,734.35
2017-02-18T12:21:40.626Z,734.35
2017-02-18T12:22:40.612Z,734.34
2017-02-18T12:23:40.593Z,734.36
2017-02-18T12:24:40.588Z,734.32
2017-02-18T12:25:40.567Z,734.31
2017-02-18T12:26:40.556Z,734.31
2017-02-18T12:27:40.547Z,734.29
2017-02-18T12:28:40.535Z,734.27
2017-02-18T12:29:40.516Z,734.31
2017-02-18T12:30:40.509Z,734.31
2017-02-18T12:31:40.497Z,734.32
2017-02-18T12:32:40.477Z,734.28